BWK weather

Bol Airport
Brač Island, Split-Dalmatia County, Croatia

Public forecast

Using degrees Celsius for public forecast. Weather courtesy of forecast.io.

METAR (pilot weather report)

Report is more than 2 hours old.

Retrieved 2019/05/21 14:00 UTC (3 hours ago):

LDSB 211400Z 17015KT 9999 FEW020 BKN040 14/09 Q1014

TAF (pilot weather forecast)

Retrieved 2019/05/21 12:27 UTC (4 hours ago):

TAF LDSB 211125Z 2112/2212 17012KT 9999 SCT025 TX17/2113Z TN12/2204Z PROB30 TEMPO 2112/2116 FEW015TCU SCT020 BECMG 2118/2120 10005KT PROB30 TEMPO 2118/2200 BKN010